createdAt,value
2023-06-10T00:01:37.837Z,4.13
2023-06-10T00:04:05.597Z,4.07
2023-06-10T00:06:37.057Z,3.90
2023-06-10T00:09:06.174Z,3.90
2023-06-10T00:11:33.721Z,4.17
2023-06-10T00:14:01.507Z,3.50
2023-06-10T00:16:29.089Z,4.10
2023-06-10T00:19:02.358Z,3.83
2023-06-10T00:21:29.757Z,4.07
2023-06-10T00:23:57.632Z,4.00
2023-06-10T00:26:24.807Z,3.73
2023-06-10T00:28:53.508Z,4.13
2023-06-10T00:31:21.912Z,4.50
2023-06-10T00:33:48.984Z,3.70
2023-06-10T00:36:16.191Z,3.30
2023-06-10T00:38:43.157Z,3.80
2023-06-10T00:41:10.228Z,4.20
2023-06-10T00:43:37.310Z,3.80
2023-06-10T00:46:04.481Z,3.70
2023-06-10T00:48:31.826Z,3.70
2023-06-10T00:51:00.764Z,4.07
2023-06-10T00:53:29.421Z,3.97
2023-06-10T00:55:56.521Z,3.97
2023-06-10T00:58:25.337Z,3.60
2023-06-10T01:00:53.130Z,4.37
2023-06-10T01:03:20.299Z,3.53
2023-06-10T01:06:01.776Z,3.90
2023-06-10T01:08:42.853Z,3.87
2023-06-10T01:11:18.884Z,3.70
2023-06-10T01:13:46.713Z,3.63
2023-06-10T01:16:14.082Z,4.10
2023-06-10T01:18:41.671Z,4.33
2023-06-10T01:21:10.425Z,4.00
2023-06-10T01:23:39.062Z,3.70
2023-06-10T01:26:11.749Z,3.77
2023-06-10T01:28:55.595Z,4.03
2023-06-10T01:31:35.394Z,4.00
2023-06-10T01:34:04.190Z,3.60
2023-06-10T01:36:33.217Z,3.73
2023-06-10T01:39:02.073Z,4.07
2023-06-10T01:41:29.977Z,3.80
2023-06-10T01:43:56.840Z,4.10
2023-06-10T01:46:24.118Z,3.67
2023-06-10T01:48:51.150Z,3.60
2023-06-10T01:51:18.125Z,4.03
2023-06-10T01:53:45.369Z,4.10
2023-06-10T01:56:17.800Z,3.77
2023-06-10T01:58:45.205Z,4.63
2023-06-10T02:01:12.439Z,3.93
2023-06-10T02:03:39.565Z,3.83
2023-06-10T02:06:06.619Z,3.73
2023-06-10T02:08:33.694Z,4.07
2023-06-10T02:11:01.261Z,3.60
2023-06-10T02:13:30.572Z,4.00
2023-06-10T02:15:58.316Z,3.80
2023-06-10T02:18:29.846Z,3.70
2023-06-10T02:20:56.885Z,4.00
2023-06-10T02:23:24.302Z,3.50
2023-06-10T02:25:51.260Z,3.70
2023-06-10T02:28:18.842Z,3.97
2023-06-10T02:30:48.053Z,3.90
2023-06-10T02:33:16.017Z,3.73
2023-06-10T02:35:44.294Z,3.93
2023-06-10T02:38:11.236Z,3.87
2023-06-10T02:40:38.425Z,3.63
2023-06-10T02:43:05.512Z,4.00
2023-06-10T02:45:33.308Z,3.67
2023-06-10T02:48:02.020Z,3.93
2023-06-10T02:50:29.429Z,3.93
2023-06-10T02:53:03.602Z,4.67
2023-06-10T02:55:31.833Z,4.00
2023-06-10T02:58:03.979Z,4.10
2023-06-10T03:00:32.155Z,4.37
2023-06-10T03:02:59.424Z,4.00
2023-06-10T03:05:32.370Z,4.03
2023-06-10T03:08:02.264Z,4.17
2023-06-10T03:10:30.888Z,3.87
2023-06-10T03:12:57.847Z,4.07
2023-06-10T03:15:26.099Z,3.90
2023-06-10T03:17:53.681Z,4.10
2023-06-10T03:20:20.841Z,4.30
2023-06-10T03:22:48.143Z,4.17
2023-06-10T03:25:15.944Z,3.77
2023-06-10T03:27:47.039Z,3.60
2023-06-10T03:30:15.172Z,3.63
2023-06-10T03:32:44.420Z,3.50
2023-06-10T03:35:14.726Z,3.80
2023-06-10T03:37:42.245Z,4.00
2023-06-10T03:40:09.930Z,3.50
2023-06-10T03:42:39.041Z,3.87
2023-06-10T03:45:07.287Z,3.33
2023-06-10T03:47:39.704Z,3.43
2023-06-10T03:50:10.617Z,3.30
2023-06-10T03:52:40.233Z,3.30
2023-06-10T03:55:08.348Z,3.47
2023-06-10T03:57:35.814Z,3.10
2023-06-10T04:00:07.809Z,3.47
2023-06-10T04:02:48.426Z,3.07
2023-06-10T04:05:27.562Z,3.40
2023-06-10T04:07:54.592Z,3.40
2023-06-10T04:10:21.820Z,3.73
2023-06-10T04:12:48.972Z,3.10
2023-06-10T04:15:16.201Z,3.50
2023-06-10T04:17:44.133Z,3.57
2023-06-10T04:20:12.258Z,3.83
2023-06-10T04:22:43.761Z,3.13
2023-06-10T04:25:11.739Z,3.30
2023-06-10T04:27:40.157Z,3.23
2023-06-10T04:30:07.736Z,3.83
2023-06-10T04:32:36.945Z,3.53
2023-06-10T04:35:04.881Z,3.60
2023-06-10T04:37:32.374Z,3.77
2023-06-10T04:40:00.431Z,2.90
2023-06-10T04:42:28.359Z,3.70
2023-06-10T04:44:55.535Z,3.60
2023-06-10T04:47:22.468Z,3.07
2023-06-10T04:49:49.899Z,3.23
2023-06-10T04:52:19.234Z,3.37
2023-06-10T04:54:47.005Z,3.37
2023-06-10T04:57:13.921Z,2.93
2023-06-10T04:59:40.851Z,3.40
2023-06-10T05:02:07.887Z,3.50
2023-06-10T05:04:35.169Z,3.87
2023-06-10T05:07:02.035Z,3.57
2023-06-10T05:09:28.914Z,3.50
2023-06-10T05:11:55.871Z,3.80
2023-06-10T05:14:23.028Z,3.10
2023-06-10T05:16:50.358Z,4.07
2023-06-10T05:19:20.624Z,3.23
2023-06-10T05:21:47.691Z,3.90
2023-06-10T05:24:14.973Z,3.63
2023-06-10T05:26:42.323Z,3.30
2023-06-10T05:29:10.379Z,3.67
2023-06-10T05:31:37.416Z,3.93
2023-06-10T05:34:04.502Z,3.70
2023-06-10T05:36:31.466Z,3.63
2023-06-10T05:38:58.337Z,3.63
2023-06-10T05:41:25.301Z,4.10
2023-06-10T05:43:52.225Z,3.70
2023-06-10T05:46:19.203Z,3.97
2023-06-10T05:48:46.271Z,3.77
2023-06-10T05:51:13.188Z,4.03
2023-06-10T05:53:40.842Z,3.83
2023-06-10T05:56:07.941Z,3.57
2023-06-10T05:58:34.982Z,4.43
2023-06-10T06:01:01.940Z,4.13
2023-06-10T06:03:30.161Z,4.50
2023-06-10T06:05:57.212Z,4.00
2023-06-10T06:08:24.153Z,3.80
2023-06-10T06:10:51.606Z,3.90
2023-06-10T06:13:18.711Z,3.70
2023-06-10T06:15:46.081Z,3.50
2023-06-10T06:18:13.106Z,3.23
2023-06-10T06:20:40.353Z,4.10
2023-06-10T06:23:07.435Z,3.60
2023-06-10T06:25:35.056Z,4.03
2023-06-10T06:28:02.125Z,3.60
2023-06-10T06:30:29.040Z,3.90
2023-06-10T06:32:56.561Z,3.57
2023-06-10T06:35:23.551Z,4.07
2023-06-10T06:37:50.691Z,3.80
2023-06-10T06:40:22.724Z,3.90
2023-06-10T06:42:50.176Z,3.63
2023-06-10T06:45:35.803Z,3.73
2023-06-10T06:48:03.715Z,3.90
2023-06-10T06:50:30.716Z,3.67
2023-06-10T06:52:57.643Z,3.43
2023-06-10T06:55:24.465Z,3.87
2023-06-10T06:57:51.336Z,3.90
2023-06-10T07:00:18.813Z,3.73
2023-06-10T07:02:45.993Z,4.07
2023-06-10T07:05:13.322Z,3.47
2023-06-10T07:07:40.783Z,3.27
2023-06-10T07:10:08.166Z,3.40
2023-06-10T07:12:35.071Z,3.40
2023-06-10T07:15:02.055Z,3.60
2023-06-10T07:17:29.076Z,3.60
2023-06-10T07:19:58.527Z,3.70
2023-06-10T07:22:25.635Z,3.93
2023-06-10T07:24:53.090Z,3.60
2023-06-10T07:27:20.132Z,3.93
2023-06-10T07:29:47.180Z,3.47
2023-06-10T07:32:14.098Z,3.07
2023-06-10T07:34:40.987Z,3.53
2023-06-10T07:37:08.128Z,3.80
2023-06-10T07:39:35.197Z,3.40
2023-06-10T07:42:02.430Z,3.33
2023-06-10T07:44:30.267Z,3.53
2023-06-10T07:46:58.965Z,3.37
2023-06-10T07:49:25.944Z,3.70
2023-06-10T07:51:56.131Z,3.73
2023-06-10T07:54:23.174Z,3.83
2023-06-10T07:56:50.415Z,3.50
2023-06-10T07:59:17.365Z,3.37
2023-06-10T08:01:44.356Z,3.10
2023-06-10T08:04:12.614Z,3.50
2023-06-10T08:06:39.804Z,3.30
2023-06-10T08:09:06.714Z,3.63
2023-06-10T08:11:33.692Z,3.27
2023-06-10T08:14:00.619Z,3.10
2023-06-10T08:16:27.548Z,3.50
2023-06-10T08:18:55.951Z,3.47
2023-06-10T08:21:23.057Z,3.17
2023-06-10T08:23:54.230Z,3.33
2023-06-10T08:26:21.351Z,3.73
2023-06-10T08:28:48.401Z,4.23
2023-06-10T08:31:15.839Z,3.60
2023-06-10T08:33:43.694Z,3.37
2023-06-10T08:36:10.693Z,3.70
2023-06-10T08:38:37.812Z,3.30
2023-06-10T08:41:06.755Z,3.40
2023-06-10T08:43:38.654Z,3.77
2023-06-10T08:46:06.642Z,3.50
2023-06-10T08:48:37.003Z,3.53
2023-06-10T08:51:05.786Z,4.17
2023-06-10T08:53:37.626Z,3.50
2023-06-10T08:56:07.307Z,3.70
2023-06-10T08:58:36.544Z,3.50
2023-06-10T09:01:03.672Z,3.17
2023-06-10T09:03:31.699Z,4.10
2023-06-10T09:05:59.160Z,3.20
2023-06-10T09:08:26.186Z,3.63
2023-06-10T09:10:53.242Z,3.50
2023-06-10T09:13:20.446Z,3.67
2023-06-10T09:15:47.508Z,3.37
2023-06-10T09:18:14.611Z,3.80
2023-06-10T09:20:44.198Z,3.63
2023-06-10T09:23:11.152Z,3.40
2023-06-10T09:25:39.760Z,3.40
2023-06-10T09:28:15.023Z,3.73
2023-06-10T09:30:42.747Z,3.60
2023-06-10T09:33:18.731Z,4.23
2023-06-10T09:35:50.651Z,4.33
2023-06-10T09:38:22.919Z,3.87
2023-06-10T09:40:54.926Z,3.60
2023-06-10T09:43:22.478Z,3.60
2023-06-10T09:45:51.075Z,3.37
2023-06-10T09:48:18.129Z,3.83
2023-06-10T09:50:46.537Z,3.23
2023-06-10T09:53:13.602Z,3.07
2023-06-10T09:55:42.295Z,3.03
2023-06-10T09:58:09.234Z,5.87
2023-06-10T10:00:36.367Z,3.63
2023-06-10T10:03:03.485Z,3.37
2023-06-10T10:05:31.213Z,3.30
2023-06-10T10:07:58.278Z,3.20
2023-06-10T10:10:25.255Z,2.90
2023-06-10T10:12:57.608Z,3.10
2023-06-10T10:15:29.876Z,3.13
2023-06-10T10:18:03.742Z,2.70
2023-06-10T10:20:34.409Z,3.13
2023-06-10T10:23:04.332Z,2.60
2023-06-10T10:25:36.074Z,2.90
2023-06-10T10:28:13.331Z,2.87
2023-06-10T10:30:47.877Z,3.10
2023-06-10T10:33:24.385Z,2.97
2023-06-10T10:35:52.454Z,4.63
2023-06-10T10:38:20.756Z,4.23
2023-06-10T10:40:48.648Z,3.03
2023-06-10T10:43:17.102Z,3.10
2023-06-10T10:45:47.341Z,3.60
2023-06-10T10:48:16.270Z,3.33
2023-06-10T10:50:43.215Z,2.40
2023-06-10T10:53:10.247Z,3.40
2023-06-10T10:55:37.395Z,2.57
2023-06-10T10:58:06.883Z,2.30
2023-06-10T11:00:39.340Z,2.50
2023-06-10T11:03:13.471Z,2.60
2023-06-10T11:05:49.410Z,2.53
2023-06-10T11:08:34.617Z,2.33
2023-06-10T11:11:01.965Z,2.67
2023-06-10T11:13:28.957Z,2.13
2023-06-10T11:15:59.271Z,2.40
2023-06-10T11:18:30.537Z,2.50
2023-06-10T11:21:03.732Z,2.63
2023-06-10T11:23:32.169Z,5.30
2023-06-10T11:26:33.773Z,3.47
2023-06-10T11:29:01.010Z,2.63
2023-06-10T11:31:31.932Z,2.33
2023-06-10T11:34:04.567Z,2.70
2023-06-10T11:36:33.189Z,2.37
2023-06-10T11:39:02.935Z,2.43
2023-06-10T11:41:32.099Z,2.30
2023-06-10T11:44:09.457Z,1.70
2023-06-10T11:46:37.386Z,2.10
2023-06-10T11:49:06.452Z,1.83
2023-06-10T11:51:42.078Z,2.23
2023-06-10T11:54:12.108Z,2.17
2023-06-10T11:56:39.093Z,2.23
2023-06-10T11:59:10.762Z,3.10
2023-06-10T12:01:44.343Z,3.10
2023-06-10T12:04:14.382Z,3.30
2023-06-10T12:06:49.237Z,3.60
2023-06-10T12:09:27.410Z,3.83
2023-06-10T12:12:01.066Z,3.07
2023-06-10T12:15:07.320Z,3.43
2023-06-10T12:17:35.605Z,3.60
2023-06-10T12:20:23.732Z,3.97
2023-06-10T12:22:50.798Z,3.87
2023-06-10T12:25:17.777Z,3.87
2023-06-10T12:27:55.185Z,3.50
2023-06-10T12:30:23.415Z,3.23
2023-06-10T12:32:51.309Z,3.47
2023-06-10T12:35:20.963Z,3.30
2023-06-10T12:38:08.149Z,3.83
2023-06-10T12:40:38.414Z,3.67
2023-06-10T12:43:05.601Z,4.23
2023-06-10T12:45:44.637Z,4.20
2023-06-10T12:48:13.783Z,4.17
2023-06-10T12:50:42.715Z,4.63
2023-06-10T12:53:12.513Z,4.43
2023-06-10T12:55:39.769Z,3.70
2023-06-10T12:58:06.845Z,3.77
2023-06-10T13:00:36.199Z,3.83
2023-06-10T13:03:04.283Z,4.00
2023-06-10T13:05:31.416Z,3.90
2023-06-10T13:07:59.213Z,3.43
2023-06-10T13:10:26.756Z,4.20
2023-06-10T13:12:55.809Z,3.93
2023-06-10T13:15:23.274Z,3.57
2023-06-10T13:17:51.896Z,3.97
2023-06-10T13:20:20.268Z,3.33
2023-06-10T13:22:48.756Z,3.33
2023-06-10T13:25:16.108Z,3.50
2023-06-10T13:27:43.690Z,2.87
2023-06-10T13:30:12.071Z,4.10
2023-06-10T13:32:39.653Z,3.30
2023-06-10T13:35:07.624Z,3.90
2023-06-10T13:37:35.299Z,3.17
2023-06-10T13:40:04.258Z,3.70
2023-06-10T13:42:31.627Z,3.63
2023-06-10T13:44:58.583Z,3.60
2023-06-10T13:47:26.701Z,3.07
2023-06-10T13:49:53.733Z,3.23
2023-06-10T13:52:20.771Z,3.17
2023-06-10T13:54:47.640Z,2.80
2023-06-10T13:57:14.591Z,3.27
2023-06-10T13:59:41.605Z,2.47
2023-06-10T14:02:08.694Z,2.90
2023-06-10T14:04:35.781Z,2.60
2023-06-10T14:07:02.642Z,2.53
2023-06-10T14:09:29.847Z,2.80
2023-06-10T14:11:56.762Z,2.90
2023-06-10T14:14:24.342Z,2.73
2023-06-10T14:16:51.491Z,3.00
2023-06-10T14:19:18.729Z,3.10
2023-06-10T14:21:45.850Z,2.90
2023-06-10T14:24:12.844Z,2.63
2023-06-10T14:26:39.874Z,3.33
2023-06-10T14:29:08.072Z,2.87
2023-06-10T14:31:35.149Z,2.90
2023-06-10T14:34:02.079Z,2.90
2023-06-10T14:36:29.003Z,2.60
2023-06-10T14:38:56.277Z,2.77
2023-06-10T14:41:23.529Z,3.07
2023-06-10T14:43:50.512Z,3.10
2023-06-10T14:46:17.674Z,3.40
2023-06-10T14:48:44.790Z,2.43
2023-06-10T14:51:11.678Z,2.60
2023-06-10T14:53:39.002Z,2.60
2023-06-10T14:56:06.360Z,2.73
2023-06-10T14:58:33.172Z,2.80
2023-06-10T15:01:00.557Z,3.13
2023-06-10T15:03:27.992Z,3.13
2023-06-10T15:05:54.863Z,3.17
2023-06-10T15:08:21.762Z,2.60
2023-06-10T15:10:49.819Z,4.47
2023-06-10T15:13:16.704Z,2.97
2023-06-10T15:15:43.668Z,2.80
2023-06-10T15:18:10.872Z,3.30
2023-06-10T15:20:38.521Z,3.07
2023-06-10T15:23:05.574Z,3.00
2023-06-10T15:25:32.689Z,2.80
2023-06-10T15:27:59.687Z,2.80
2023-06-10T15:30:26.911Z,3.07
2023-06-10T15:32:54.108Z,2.63
2023-06-10T15:35:21.320Z,2.70
2023-06-10T15:37:48.632Z,2.60
2023-06-10T15:40:16.254Z,2.67
2023-06-10T15:42:43.236Z,2.37
2023-06-10T15:45:10.921Z,2.63
2023-06-10T15:47:38.117Z,3.10
2023-06-10T15:50:05.688Z,2.80
2023-06-10T15:52:32.718Z,3.07
2023-06-10T15:54:59.697Z,2.53
2023-06-10T15:57:27.345Z,2.93
2023-06-10T15:59:55.078Z,2.93
2023-06-10T16:02:22.401Z,2.40
2023-06-10T16:04:49.886Z,2.17
2023-06-10T16:07:16.795Z,2.53
2023-06-10T16:09:43.819Z,2.70
2023-06-10T16:12:11.384Z,2.50
2023-06-10T16:14:38.366Z,2.20
2023-06-10T16:17:05.726Z,2.57
2023-06-10T16:19:32.939Z,2.03
2023-06-10T16:22:00.046Z,2.17
2023-06-10T16:24:27.079Z,2.67
2023-06-10T16:26:54.127Z,2.40
2023-06-10T16:29:21.063Z,2.27
2023-06-10T16:31:49.445Z,2.10
2023-06-10T16:34:17.800Z,2.43
2023-06-10T16:36:45.218Z,2.43
2023-06-10T16:39:12.112Z,2.50
2023-06-10T16:41:40.137Z,2.90
2023-06-10T16:44:07.085Z,2.60
2023-06-10T16:46:34.015Z,2.40
2023-06-10T16:49:00.975Z,2.40
2023-06-10T16:51:28.029Z,2.10
2023-06-10T16:53:54.942Z,2.20
2023-06-10T16:56:22.594Z,2.10
2023-06-10T16:58:49.985Z,2.67
2023-06-10T17:01:17.438Z,1.97
2023-06-10T17:03:44.427Z,2.13
2023-06-10T17:06:11.778Z,2.43
2023-06-10T17:08:38.634Z,2.17
2023-06-10T17:11:05.588Z,1.70
2023-06-10T17:13:32.800Z,2.43
2023-06-10T17:15:59.732Z,2.87
2023-06-10T17:18:26.722Z,2.40
2023-06-10T17:20:53.686Z,2.10
2023-06-10T17:23:20.731Z,2.30
2023-06-10T17:25:47.622Z,1.93
2023-06-10T17:28:14.586Z,2.77
2023-06-10T17:30:41.590Z,2.23
2023-06-10T17:33:08.658Z,2.50
2023-06-10T17:35:35.787Z,2.50
2023-06-10T17:38:02.695Z,2.80
2023-06-10T17:40:29.645Z,2.40
2023-06-10T17:42:56.724Z,2.63
2023-06-10T17:45:23.646Z,2.27
2023-06-10T17:47:50.692Z,2.33
2023-06-10T17:50:19.957Z,2.30
2023-06-10T17:52:47.232Z,3.10
2023-06-10T17:55:14.228Z,2.93
2023-06-10T17:57:41.307Z,3.23
2023-06-10T18:00:08.893Z,2.60
2023-06-10T18:02:36.499Z,2.13
2023-06-10T18:05:03.949Z,2.50
2023-06-10T18:07:31.468Z,2.90
2023-06-10T18:09:58.908Z,2.40
2023-06-10T18:12:26.326Z,2.40
2023-06-10T18:14:53.257Z,2.13
2023-06-10T18:17:20.202Z,2.27
2023-06-10T18:19:47.212Z,2.50
2023-06-10T18:22:14.208Z,2.03
2023-06-10T18:24:41.118Z,2.13
2023-06-10T18:27:09.374Z,2.40
2023-06-10T18:29:36.308Z,2.37
2023-06-10T18:32:03.354Z,2.33
2023-06-10T18:34:30.574Z,2.77
2023-06-10T18:36:57.531Z,2.27
2023-06-10T18:39:24.500Z,2.33
2023-06-10T18:41:51.686Z,2.20
2023-06-10T18:44:18.767Z,2.10
2023-06-10T18:46:45.678Z,2.37
2023-06-10T18:49:12.717Z,2.13
2023-06-10T18:51:39.630Z,2.23
2023-06-10T18:54:06.634Z,2.10
2023-06-10T18:56:33.741Z,2.17
2023-06-10T18:59:00.950Z,2.70
2023-06-10T19:01:27.908Z,2.10
2023-06-10T19:03:54.987Z,2.10
2023-06-10T19:06:23.231Z,2.27
2023-06-10T19:08:50.205Z,2.67
2023-06-10T19:11:18.068Z,2.07
2023-06-10T19:13:45.357Z,2.47
2023-06-10T19:16:12.201Z,2.10
2023-06-10T19:18:39.540Z,2.70
2023-06-10T19:21:08.241Z,2.07
2023-06-10T19:23:37.056Z,2.50
2023-06-10T19:26:04.895Z,1.70
2023-06-10T19:28:31.841Z,2.27
2023-06-10T19:30:58.716Z,2.40
2023-06-10T19:33:25.865Z,2.23
2023-06-10T19:35:52.869Z,1.97
2023-06-10T19:38:20.482Z,2.43
2023-06-10T19:40:48.443Z,2.53
2023-06-10T19:43:15.759Z,2.03
2023-06-10T19:45:42.749Z,2.27
2023-06-10T19:48:11.723Z,2.13
2023-06-10T19:50:39.015Z,2.37
2023-06-10T19:53:05.899Z,2.10
2023-06-10T19:55:34.802Z,2.47
2023-06-10T19:58:03.738Z,2.23
2023-06-10T20:00:30.660Z,2.30
2023-06-10T20:02:57.782Z,2.37
2023-06-10T20:05:24.973Z,2.10
2023-06-10T20:07:51.964Z,2.10
2023-06-10T20:10:19.539Z,2.40
2023-06-10T20:12:46.646Z,2.57
2023-06-10T20:15:13.728Z,2.23
2023-06-10T20:17:41.071Z,2.77
2023-06-10T20:20:08.621Z,1.97
2023-06-10T20:22:35.590Z,1.83
2023-06-10T20:25:02.606Z,2.10
2023-06-10T20:27:29.689Z,2.17
2023-06-10T20:29:57.419Z,2.37
2023-06-10T20:32:24.769Z,2.37
2023-06-10T20:34:52.110Z,2.40
2023-06-10T20:37:19.118Z,2.60
2023-06-10T20:39:46.176Z,2.73
2023-06-10T20:42:16.007Z,2.73
2023-06-10T20:44:44.162Z,3.00
2023-06-10T20:47:11.302Z,2.90
2023-06-10T20:49:38.282Z,2.77
2023-06-10T20:52:05.313Z,2.80
2023-06-10T20:54:32.313Z,3.03
2023-06-10T20:56:59.240Z,2.90
2023-06-10T20:59:26.146Z,3.50
2023-06-10T21:01:53.240Z,2.87
2023-06-10T21:04:20.350Z,2.83
2023-06-10T21:06:47.297Z,2.80
2023-06-10T21:09:14.375Z,2.83
2023-06-10T21:11:41.537Z,2.67
2023-06-10T21:14:09.137Z,2.47
2023-06-10T21:16:36.562Z,3.43
2023-06-10T21:19:04.069Z,2.77
2023-06-10T21:21:31.259Z,3.20
2023-06-10T21:23:58.455Z,3.03
2023-06-10T21:26:26.222Z,2.80
2023-06-10T21:28:55.360Z,3.13
2023-06-10T21:31:22.647Z,2.90
2023-06-10T21:33:49.980Z,2.50
2023-06-10T21:36:19.127Z,3.10
2023-06-10T21:38:46.675Z,2.70
2023-06-10T21:41:13.627Z,3.10
2023-06-10T21:43:40.925Z,3.13
2023-06-10T21:46:08.133Z,3.47
2023-06-10T21:48:36.566Z,3.37
2023-06-10T21:51:03.554Z,3.27
2023-06-10T21:53:30.781Z,3.03
2023-06-10T21:55:57.671Z,3.37
2023-06-10T21:58:24.549Z,2.90
2023-06-10T22:00:51.976Z,3.10
2023-06-10T22:03:19.866Z,3.17
2023-06-10T22:05:47.384Z,3.00
2023-06-10T22:08:14.456Z,3.47
2023-06-10T22:10:42.019Z,3.53
2023-06-10T22:13:09.213Z,3.00
2023-06-10T22:15:36.313Z,3.50
2023-06-10T22:18:06.441Z,3.67
2023-06-10T22:20:33.495Z,3.43
2023-06-10T22:23:00.657Z,3.13
2023-06-10T22:25:27.580Z,3.60
2023-06-10T22:27:54.619Z,3.07
2023-06-10T22:30:21.743Z,3.47
2023-06-10T22:32:48.738Z,3.43
2023-06-10T22:35:16.112Z,3.30
2023-06-10T22:37:43.211Z,3.40
2023-06-10T22:40:10.457Z,3.10
2023-06-10T22:42:37.301Z,3.70
2023-06-10T22:45:05.303Z,3.33
2023-06-10T22:47:32.338Z,3.37
2023-06-10T22:49:59.598Z,3.53
2023-06-10T22:52:26.637Z,3.00
2023-06-10T22:54:53.458Z,3.63
2023-06-10T22:57:20.469Z,3.17
2023-06-10T22:59:47.789Z,3.80
2023-06-10T23:02:14.980Z,3.43
2023-06-10T23:04:42.072Z,3.23
2023-06-10T23:07:10.534Z,3.73
2023-06-10T23:09:37.513Z,3.40
2023-06-10T23:12:04.775Z,3.90
2023-06-10T23:14:31.932Z,3.67
2023-06-10T23:16:58.959Z,3.97
2023-06-10T23:19:28.048Z,3.47
2023-06-10T23:21:57.279Z,3.50
2023-06-10T23:24:30.159Z,3.53
2023-06-10T23:26:59.442Z,3.70
2023-06-10T23:29:27.117Z,3.87
2023-06-10T23:31:54.943Z,3.97
2023-06-10T23:34:22.536Z,4.13
2023-06-10T23:36:49.938Z,3.60
2023-06-10T23:39:17.378Z,3.73
2023-06-10T23:41:46.350Z,3.90
2023-06-10T23:44:14.103Z,4.17
2023-06-10T23:46:41.268Z,3.67
2023-06-10T23:49:10.277Z,4.13
2023-06-10T23:51:38.472Z,3.97
2023-06-10T23:54:06.741Z,3.77
2023-06-10T23:56:33.964Z,3.77
2023-06-10T23:59:01.128Z,4.23
